Terminal Aerodrome Forecast
Issued by NWS

Home | Current Version | Previous Version | Text Only | Print | Product List | Glossary Off
Versions: 1 2 3 4 5 6 7 8 9 10 11 12 13 14 15 16 17 18 19 20 21 22

753
FTUS42 KMHX 012338
TAFPGV
TAF
KPGV 012338Z 0200/0224 19007KT P6SM SCT250
     FM020600 20007KT P6SM VCSH SCT007 BKN015
     FM021300 22010KT P6SM BKN040
      AMD LTD TO CLD VIS AND WIND=

USA.gov is the U.S. government's official web portal to all federal, state and local government web resources and services.